createdAt,value
2017-06-30T00:00:49.432Z,24.85
2017-06-30T00:01:49.141Z,24.83
2017-06-30T00:02:49.159Z,24.84
2017-06-30T00:03:49.756Z,24.85
2017-06-30T00:04:49.534Z,24.88
2017-06-30T00:05:49.560Z,24.85
2017-06-30T00:06:49.276Z,24.84
2017-06-30T00:07:49.618Z,24.8
2017-06-30T00:08:49.319Z,24.88
2017-06-30T00:09:49.359Z,24.85
2017-06-30T00:10:49.708Z,24.83
2017-06-30T00:11:49.742Z,24.88
2017-06-30T00:12:49.759Z,24.87
2017-06-30T00:13:49.719Z,24.9
2017-06-30T00:14:49.195Z,24.99
2017-06-30T00:15:49.849Z,24.98
2017-06-30T00:16:49.558Z,24.93
2017-06-30T00:17:49.905Z,24.96
2017-06-30T00:18:50.183Z,24.99
2017-06-30T00:19:49.955Z,24.95
2017-06-30T00:20:49.672Z,24.95
2017-06-30T00:21:49.711Z,24.98
2017-06-30T00:22:49.733Z,24.95
2017-06-30T00:23:50.055Z,24.96
2017-06-30T00:24:50.096Z,24.95
2017-06-30T00:25:49.809Z,24.93
2017-06-30T00:26:49.847Z,25.03
2017-06-30T00:27:50.181Z,24.98
2017-06-30T00:28:50.462Z,24.98
2017-06-30T00:29:49.931Z,25.02
2017-06-30T00:30:49.948Z,25.06
2017-06-30T00:31:50.293Z,25.02
2017-06-30T00:32:50.011Z,25.06
2017-06-30T00:33:50.653Z,24.93
2017-06-30T00:34:50.383Z,25.02
2017-06-30T00:35:49.776Z,24.96
2017-06-30T00:36:50.119Z,24.93
2017-06-30T00:37:50.474Z,25.06
2017-06-30T00:38:50.788Z,25.08
2017-06-30T00:39:49.892Z,24.99
2017-06-30T00:40:50.540Z,24.99
2017-06-30T00:41:50.568Z,24.99
2017-06-30T00:42:50.609Z,25
2017-06-30T00:43:50.916Z,25
2017-06-30T00:44:50.651Z,24.93
2017-06-30T00:45:50.376Z,24.9
2017-06-30T00:46:50.712Z,24.84
2017-06-30T00:47:50.741Z,24.88
2017-06-30T00:48:51.026Z,24.88
2017-06-30T00:49:50.795Z,24.84
2017-06-30T00:50:50.823Z,24.9
2017-06-30T00:51:50.237Z,24.88
2017-06-30T00:52:50.869Z,24.84
2017-06-30T00:53:50.899Z,24.91
2017-06-30T00:54:50.944Z,24.84
2017-06-30T00:55:50.973Z,24.85
2017-06-30T00:56:50.689Z,24.88
2017-06-30T00:57:50.710Z,24.84
2017-06-30T00:58:51.038Z,24.85
2017-06-30T00:59:51.091Z,24.87
2017-06-30T01:00:50.793Z,24.93
2017-06-30T01:01:50.821Z,24.87
2017-06-30T01:02:51.154Z,24.85
2017-06-30T01:03:51.487Z,24.85
2017-06-30T01:04:50.896Z,24.83
2017-06-30T01:05:50.938Z,24.81
2017-06-30T01:06:50.965Z,24.88
2017-06-30T01:07:50.989Z,24.88
2017-06-30T01:08:51.022Z,24.85
2017-06-30T01:09:51.365Z,24.84
2017-06-30T01:10:51.392Z,24.77
2017-06-30T01:11:51.105Z,24.78
2017-06-30T01:12:51.443Z,24.83
2017-06-30T01:13:51.158Z,24.77
2017-06-30T01:14:51.191Z,24.87
2017-06-30T01:15:51.229Z,24.88
2017-06-30T01:16:51.548Z,24.93
2017-06-30T01:17:51.580Z,24.81
2017-06-30T01:18:51.612Z,24.77
2017-06-30T01:19:51.330Z,24.85
2017-06-30T01:20:51.675Z,24.87
2017-06-30T01:21:51.702Z,24.88
2017-06-30T01:22:51.722Z,24.88
2017-06-30T01:23:51.750Z,24.85
2017-06-30T01:24:51.788Z,24.91
2017-06-30T01:25:51.804Z,24.87
2017-06-30T01:26:51.533Z,24.77
2017-06-30T01:27:51.866Z,24.78
2017-06-30T01:28:51.885Z,24.88
2017-06-30T01:29:51.615Z,24.88
2017-06-30T01:30:51.948Z,24.84
2017-06-30T01:31:51.666Z,24.83
2017-06-30T01:32:52.001Z,24.8
2017-06-30T01:33:51.718Z,24.9
2017-06-30T01:34:52.050Z,24.87
2017-06-30T01:35:52.086Z,24.77
2017-06-30T01:36:52.111Z,24.85
2017-06-30T01:37:52.150Z,24.84
2017-06-30T01:38:52.178Z,24.8
2017-06-30T01:39:52.199Z,24.8
2017-06-30T01:40:52.227Z,24.77
2017-06-30T01:41:51.949Z,24.8
2017-06-30T01:42:51.661Z,24.8
2017-06-30T01:43:52.346Z,24.71
2017-06-30T01:44:52.023Z,24.67
2017-06-30T01:45:52.049Z,24.68
2017-06-30T01:46:52.080Z,24.71
2017-06-30T01:47:52.114Z,24.55
2017-06-30T01:48:52.147Z,24.61
2017-06-30T01:49:52.475Z,24.77
2017-06-30T01:50:52.508Z,24.67
2017-06-30T01:51:51.905Z,24.64
2017-06-30T01:52:52.251Z,24.68
2017-06-30T01:53:52.282Z,24.64
2017-06-30T01:54:52.606Z,24.62
2017-06-30T01:55:52.648Z,24.62
2017-06-30T01:56:52.357Z,24.64
2017-06-30T01:57:52.383Z,24.73
2017-06-30T01:58:52.730Z,24.6
2017-06-30T01:59:52.746Z,24.62
2017-06-30T02:00:52.844Z,24.61
2017-06-30T02:01:52.818Z,24.61
2017-06-30T02:02:52.829Z,24.49
2017-06-30T02:03:52.561Z,24.6
2017-06-30T02:04:52.835Z,24.62
2017-06-30T02:05:52.925Z,24.58
2017-06-30T02:06:52.954Z,24.58
2017-06-30T02:07:52.674Z,24.57
2017-06-30T02:08:53.010Z,24.6
2017-06-30T02:09:53.335Z,24.53
2017-06-30T02:10:52.449Z,24.47
2017-06-30T02:11:53.089Z,24.49
2017-06-30T02:12:53.130Z,24.55
2017-06-30T02:13:53.158Z,24.6
2017-06-30T02:14:53.434Z,24.58
2017-06-30T02:15:53.205Z,24.53
2017-06-30T02:16:53.240Z,24.61
2017-06-30T02:17:53.273Z,24.53
2017-06-30T02:18:53.286Z,24.5
2017-06-30T02:19:53.259Z,24.49
2017-06-30T02:20:53.039Z,24.47
2017-06-30T02:21:53.370Z,24.52
2017-06-30T02:22:53.406Z,24.45
2017-06-30T02:23:53.114Z,24.5
2017-06-30T02:24:53.395Z,24.53
2017-06-30T02:25:53.479Z,24.49
2017-06-30T02:26:53.198Z,24.57
2017-06-30T02:27:53.236Z,24.5
2017-06-30T02:28:53.264Z,24.57
2017-06-30T02:29:53.880Z,24.52
2017-06-30T02:30:53.312Z,24.5
2017-06-30T02:31:53.649Z,24.5
2017-06-30T02:32:53.378Z,24.52
2017-06-30T02:33:53.399Z,24.55
2017-06-30T02:34:53.976Z,24.43
2017-06-30T02:35:53.768Z,24.43
2017-06-30T02:36:53.480Z,24.47
2017-06-30T02:37:53.821Z,24.47
2017-06-30T02:38:53.850Z,24.58
2017-06-30T02:39:54.178Z,24.55
2017-06-30T02:40:53.595Z,24.57
2017-06-30T02:41:53.926Z,24.52
2017-06-30T02:42:53.338Z,24.53
2017-06-30T02:43:53.674Z,24.53
2017-06-30T02:44:54.270Z,24.52
2017-06-30T02:45:54.051Z,24.55
2017-06-30T02:46:54.065Z,24.58
2017-06-30T02:47:54.098Z,24.46
2017-06-30T02:48:54.135Z,24.53
2017-06-30T02:49:54.450Z,24.47
2017-06-30T02:50:53.872Z,24.47
2017-06-30T02:51:53.893Z,24.46
2017-06-30T02:52:53.920Z,24.47
2017-06-30T02:53:54.255Z,24.42
2017-06-30T02:54:54.279Z,24.37
2017-06-30T02:55:54.005Z,24.49
2017-06-30T02:56:54.347Z,24.42
2017-06-30T02:57:54.378Z,24.45
2017-06-30T02:58:54.410Z,24.49
2017-06-30T02:59:54.680Z,24.47
2017-06-30T03:00:54.456Z,24.49
2017-06-30T03:01:54.489Z,24.46
2017-06-30T03:02:54.511Z,24.46
2017-06-30T03:03:54.551Z,24.45
2017-06-30T03:04:54.863Z,24.45
2017-06-30T03:05:54.283Z,24.49
2017-06-30T03:06:54.612Z,24.46
2017-06-30T03:07:54.640Z,24.47
2017-06-30T03:08:54.733Z,24.46
2017-06-30T03:09:54.954Z,24.43
2017-06-30T03:10:54.738Z,24.4
2017-06-30T03:11:54.452Z,24.39
2017-06-30T03:12:54.485Z,24.34
2017-06-30T03:13:54.502Z,24.42
2017-06-30T03:14:55.103Z,24.4
2017-06-30T03:15:54.245Z,24.45
2017-06-30T03:16:54.901Z,24.4
2017-06-30T03:17:54.938Z,24.45
2017-06-30T03:18:54.642Z,24.47
2017-06-30T03:19:55.231Z,24.4
2017-06-30T03:20:55.024Z,24.46
2017-06-30T03:21:54.732Z,24.43
2017-06-30T03:22:55.109Z,24.45
2017-06-30T03:23:54.790Z,24.4
2017-06-30T03:24:55.438Z,24.43
2017-06-30T03:25:54.831Z,24.45
2017-06-30T03:26:55.172Z,24.57
2017-06-30T03:27:55.213Z,24.55
2017-06-30T03:28:55.239Z,24.5
2017-06-30T03:29:55.531Z,24.5
2017-06-30T03:30:55.300Z,24.52
2017-06-30T03:31:55.313Z,24.57
2017-06-30T03:32:55.352Z,24.53
2017-06-30T03:33:55.382Z,24.53
2017-06-30T03:34:55.402Z,24.5
2017-06-30T03:35:55.432Z,24.49
2017-06-30T03:36:55.467Z,24.52
2017-06-30T03:37:55.164Z,24.53
2017-06-30T03:38:55.519Z,24.53
2017-06-30T03:39:55.543Z,24.57
2017-06-30T03:40:55.567Z,24.49
2017-06-30T03:41:55.592Z,24.57
2017-06-30T03:42:55.352Z,24.58
2017-06-30T03:43:55.654Z,24.52
2017-06-30T03:44:55.679Z,24.53
2017-06-30T03:45:55.392Z,24.55
2017-06-30T03:46:55.433Z,24.47
2017-06-30T03:47:55.765Z,24.52
2017-06-30T03:48:55.785Z,24.58
2017-06-30T03:49:55.834Z,24.43
2017-06-30T03:50:55.220Z,24.42
2017-06-30T03:51:55.557Z,24.45
2017-06-30T03:52:55.905Z,24.6
2017-06-30T03:53:55.618Z,24.49
2017-06-30T03:54:55.951Z,24.5
2017-06-30T03:55:55.686Z,24.45
2017-06-30T03:56:55.697Z,24.46
2017-06-30T03:57:56.034Z,24.49
2017-06-30T03:58:55.765Z,24.45
2017-06-30T03:59:55.471Z,24.57
2017-06-30T04:00:56.123Z,24.52
2017-06-30T04:01:55.840Z,24.46
2017-06-30T04:02:55.878Z,24.45
2017-06-30T04:03:56.209Z,24.4
2017-06-30T04:04:55.922Z,24.34
2017-06-30T04:05:56.512Z,24.45
2017-06-30T04:06:55.972Z,24.37
2017-06-30T04:07:56.312Z,24.35
2017-06-30T04:08:56.334Z,24.4
2017-06-30T04:09:56.375Z,24.35
2017-06-30T04:10:56.340Z,24.39
2017-06-30T04:11:56.432Z,24.31
2017-06-30T04:12:56.461Z,24.45
2017-06-30T04:13:55.861Z,24.34
2017-06-30T04:14:56.515Z,24.35
2017-06-30T04:15:56.796Z,24.28
2017-06-30T04:16:56.572Z,24.27
2017-06-30T04:17:56.600Z,24.28
2017-06-30T04:18:56.314Z,24.24
2017-06-30T04:19:56.652Z,24.37
2017-06-30T04:20:56.924Z,24.25
2017-06-30T04:21:56.385Z,24.39
2017-06-30T04:22:56.736Z,24.27
2017-06-30T04:23:56.762Z,24.24
2017-06-30T04:24:56.479Z,24.27
2017-06-30T04:25:57.067Z,24.31
2017-06-30T04:26:56.848Z,24.28
2017-06-30T04:27:56.861Z,24.3
2017-06-30T04:28:56.576Z,24.28
2017-06-30T04:29:56.652Z,24.22
2017-06-30T04:30:56.941Z,24.2
2017-06-30T04:31:56.668Z,24.2
2017-06-30T04:32:57.016Z,24.21
2017-06-30T04:33:56.730Z,24.15
2017-06-30T04:34:56.758Z,24.18
2017-06-30T04:35:57.034Z,24.15
2017-06-30T04:36:57.129Z,24.21
2017-06-30T04:37:57.148Z,24.27
2017-06-30T04:38:56.885Z,24.22
2017-06-30T04:39:56.883Z,24.24
2017-06-30T04:40:57.173Z,24.16
2017-06-30T04:41:56.948Z,24.2
2017-06-30T04:42:56.985Z,24.22
2017-06-30T04:43:56.995Z,24.21
2017-06-30T04:44:57.031Z,24.18
2017-06-30T04:45:57.358Z,24.27
2017-06-30T04:46:57.084Z,24.13
2017-06-30T04:47:57.110Z,24.2
2017-06-30T04:48:57.457Z,24.2
2017-06-30T04:49:57.474Z,24.21
2017-06-30T04:50:57.809Z,24.15
2017-06-30T04:51:57.224Z,24.21
2017-06-30T04:52:57.556Z,24.2
2017-06-30T04:53:57.585Z,24.16
2017-06-30T04:54:57.622Z,24.13
2017-06-30T04:55:57.339Z,24.18
2017-06-30T04:56:57.357Z,24.1
2017-06-30T04:57:57.390Z,24.15
2017-06-30T04:58:57.738Z,24.18
2017-06-30T04:59:57.802Z,24.2
2017-06-30T05:00:57.795Z,24.12
2017-06-30T05:01:57.817Z,24.18
2017-06-30T05:02:57.882Z,24.12
2017-06-30T05:03:57.553Z,24.1
2017-06-30T05:04:57.895Z,24.2
2017-06-30T05:05:57.927Z,24.03
2017-06-30T05:06:57.948Z,24.1
2017-06-30T05:07:57.352Z,24.15
2017-06-30T05:08:58.004Z,24.09
2017-06-30T05:09:58.034Z,24.09
2017-06-30T05:10:58.056Z,24.1
2017-06-30T05:11:58.084Z,24.2
2017-06-30T05:12:58.120Z,24.13
2017-06-30T05:13:58.142Z,24.13
2017-06-30T05:14:57.854Z,24.16
2017-06-30T05:15:58.201Z,24.06
2017-06-30T05:16:57.908Z,24.16
2017-06-30T05:17:58.252Z,24.16
2017-06-30T05:18:57.969Z,24.21
2017-06-30T05:19:57.994Z,24.13
2017-06-30T05:20:58.327Z,24.16
2017-06-30T05:21:58.372Z,24.21
2017-06-30T05:22:58.400Z,24.18
2017-06-30T05:23:58.113Z,24.21
2017-06-30T05:24:58.142Z,24.2
2017-06-30T05:25:58.475Z,24.24
2017-06-30T05:26:58.185Z,24.24
2017-06-30T05:27:58.208Z,24.18
2017-06-30T05:28:58.240Z,24.28
2017-06-30T05:29:58.278Z,24.32
2017-06-30T05:30:58.601Z,24.3
2017-06-30T05:31:58.323Z,24.25
2017-06-30T05:32:58.361Z,24.28
2017-06-30T05:33:58.073Z,24.31
2017-06-30T05:34:58.719Z,24.22
2017-06-30T05:35:58.443Z,24.24
2017-06-30T05:36:59.023Z,24.31
2017-06-30T05:37:58.493Z,24.31
2017-06-30T05:38:58.209Z,24.31
2017-06-30T05:39:58.861Z,24.21
2017-06-30T05:40:58.562Z,24.32
2017-06-30T05:41:59.172Z,24.34
2017-06-30T05:42:58.948Z,24.32
2017-06-30T05:43:58.669Z,24.32
2017-06-30T05:44:59.002Z,24.27
2017-06-30T05:45:58.714Z,24.25
2017-06-30T05:46:58.996Z,24.27
2017-06-30T05:47:59.084Z,24.28
2017-06-30T05:48:59.109Z,24.32
2017-06-30T05:49:58.514Z,24.28
2017-06-30T05:50:59.167Z,24.21
2017-06-30T05:51:59.443Z,24.28
2017-06-30T05:52:59.249Z,24.28
2017-06-30T05:53:59.246Z,24.24
2017-06-30T05:54:58.965Z,24.35
2017-06-30T05:55:58.983Z,24.32
2017-06-30T05:56:59.571Z,24.27
2017-06-30T05:57:59.039Z,24.35
2017-06-30T05:58:59.381Z,24.35
2017-06-30T05:59:59.413Z,24.34
2017-06-30T06:00:59.135Z,24.34
2017-06-30T06:01:59.453Z,24.34
2017-06-30T06:02:59.500Z,24.4
2017-06-30T06:03:59.225Z,24.37
2017-06-30T06:04:59.245Z,24.45
2017-06-30T06:05:59.268Z,24.35
2017-06-30T06:06:59.863Z,24.39
2017-06-30T06:07:59.319Z,24.42
2017-06-30T06:08:59.661Z,24.4
2017-06-30T06:09:59.387Z,24.35
2017-06-30T06:10:59.722Z,24.46
2017-06-30T06:11:59.679Z,24.53
2017-06-30T06:12:59.776Z,24.49
2017-06-30T06:13:59.808Z,24.49
2017-06-30T06:14:59.822Z,24.53
2017-06-30T06:15:59.535Z,24.55
2017-06-30T06:17:00.182Z,24.52
2017-06-30T06:17:59.296Z,24.45
2017-06-30T06:18:59.624Z,24.47
2017-06-30T06:19:59.657Z,24.6
2017-06-30T06:21:00.003Z,24.53
2017-06-30T06:21:59.975Z,24.62
2017-06-30T06:22:59.744Z,24.58
2017-06-30T06:24:00.085Z,24.5
2017-06-30T06:24:59.482Z,24.61
2017-06-30T06:25:59.823Z,24.53
2017-06-30T06:27:00.413Z,24.57
2017-06-30T06:28:00.192Z,24.57
2017-06-30T06:29:00.229Z,24.58
2017-06-30T06:30:00.255Z,24.53
2017-06-30T06:31:00.311Z,24.57
2017-06-30T06:32:00.602Z,24.6
2017-06-30T06:33:00.339Z,24.47
2017-06-30T06:33:59.740Z,24.61
2017-06-30T06:35:00.386Z,24.55
2017-06-30T06:36:00.416Z,24.53
2017-06-30T06:37:00.131Z,24.55
2017-06-30T06:38:00.461Z,24.53
2017-06-30T06:39:00.496Z,24.6
2017-06-30T06:40:00.521Z,24.62
2017-06-30T06:41:00.543Z,24.57
2017-06-30T06:42:00.584Z,24.6
2017-06-30T06:43:00.304Z,24.58
2017-06-30T06:44:00.632Z,24.55
2017-06-30T06:45:00.665Z,24.53
2017-06-30T06:46:00.383Z,24.45
2017-06-30T06:47:00.711Z,24.43
2017-06-30T06:48:00.756Z,24.5
2017-06-30T06:49:00.777Z,24.64
2017-06-30T06:50:00.486Z,24.55
2017-06-30T06:51:00.833Z,24.62
2017-06-30T06:52:00.870Z,24.53
2017-06-30T06:53:00.571Z,24.65
2017-06-30T06:54:00.916Z,24.67
2017-06-30T06:55:00.961Z,24.6
2017-06-30T06:56:00.976Z,24.67
2017-06-30T06:57:00.683Z,24.61
2017-06-30T06:58:00.723Z,24.65
2017-06-30T06:59:00.740Z,24.58
2017-06-30T07:00:01.077Z,24.61
2017-06-30T07:01:00.799Z,24.61
2017-06-30T07:02:01.143Z,24.65
2017-06-30T07:03:01.168Z,24.62
2017-06-30T07:04:01.197Z,24.67
2017-06-30T07:05:00.596Z,24.6
2017-06-30T07:06:01.247Z,24.6
2017-06-30T07:07:01.267Z,24.62
2017-06-30T07:08:01.311Z,24.64
2017-06-30T07:09:01.325Z,24.69
2017-06-30T07:10:01.366Z,24.77
2017-06-30T07:11:01.381Z,24.76
2017-06-30T07:12:01.423Z,24.71
2017-06-30T07:13:01.436Z,24.64
2017-06-30T07:14:00.851Z,24.76
2017-06-30T07:15:01.498Z,24.78
2017-06-30T07:16:01.523Z,24.76
2017-06-30T07:17:01.559Z,24.73
2017-06-30T07:18:01.522Z,24.83
2017-06-30T07:19:01.616Z,24.77
2017-06-30T07:20:01.330Z,24.78
2017-06-30T07:21:01.670Z,24.81
2017-06-30T07:22:01.391Z,24.87
2017-06-30T07:23:01.659Z,24.84
2017-06-30T07:24:01.753Z,24.9
2017-06-30T07:25:01.200Z,24.85
2017-06-30T07:26:01.490Z,24.87
2017-06-30T07:27:01.847Z,24.9
2017-06-30T07:28:02.128Z,24.83
2017-06-30T07:29:01.588Z,24.95
2017-06-30T07:30:01.922Z,25.02
2017-06-30T07:31:01.625Z,24.99
2017-06-30T07:32:01.354Z,24.95
2017-06-30T07:33:01.943Z,24.93
2017-06-30T07:34:02.020Z,25.05
2017-06-30T07:35:02.065Z,24.98
2017-06-30T07:36:02.079Z,25
2017-06-30T07:37:02.119Z,24.99
2017-06-30T07:38:02.076Z,24.96
2017-06-30T07:39:01.541Z,25.06
2017-06-30T07:40:01.889Z,25.06
2017-06-30T07:41:01.907Z,25.06
2017-06-30T07:42:01.952Z,25.13
2017-06-30T07:43:02.231Z,25.06
2017-06-30T07:44:02.311Z,25.13
2017-06-30T07:45:02.341Z,25.09
2017-06-30T07:46:02.374Z,25.13
2017-06-30T07:47:02.394Z,25.18
2017-06-30T07:48:02.362Z,25.17
2017-06-30T07:49:02.461Z,25.15
2017-06-30T07:50:02.480Z,25.17
2017-06-30T07:51:02.509Z,25.17
2017-06-30T07:52:02.235Z,25.24
2017-06-30T07:53:02.819Z,25.14
2017-06-30T07:54:02.289Z,25.15
2017-06-30T07:55:02.310Z,25.15
2017-06-30T07:56:02.029Z,25.14
2017-06-30T07:57:02.055Z,25.14
2017-06-30T07:58:02.960Z,25.2
2017-06-30T07:59:02.738Z,25.21
2017-06-30T08:00:02.767Z,25.08
2017-06-30T08:01:02.474Z,25.21
2017-06-30T08:02:02.518Z,25.23
2017-06-30T08:03:02.484Z,25.18
2017-06-30T08:04:02.867Z,25.21
2017-06-30T08:05:02.901Z,25.21
2017-06-30T08:06:02.616Z,25.18
2017-06-30T08:07:02.642Z,25.2
2017-06-30T08:08:03.238Z,25.15
2017-06-30T08:09:03.024Z,25.18
2017-06-30T08:10:03.053Z,25.13
2017-06-30T08:11:02.764Z,25.23
2017-06-30T08:12:03.153Z,25.27
2017-06-30T08:13:03.065Z,25.24
2017-06-30T08:14:03.167Z,25.23
2017-06-30T08:15:02.564Z,25.23
2017-06-30T08:16:02.899Z,25.35
2017-06-30T08:17:02.929Z,25.27
2017-06-30T08:18:03.247Z,25.36
2017-06-30T08:19:02.980Z,25.36
2017-06-30T08:20:03.011Z,25.4
2017-06-30T08:21:03.361Z,25.32
2017-06-30T08:22:03.386Z,25.36
2017-06-30T08:23:03.346Z,25.45
2017-06-30T08:24:03.436Z,25.45
2017-06-30T08:25:03.464Z,25.46
2017-06-30T08:26:03.497Z,25.36
2017-06-30T08:27:03.538Z,25.39
2017-06-30T08:28:03.807Z,25.36
2017-06-30T08:29:03.579Z,25.4
2017-06-30T08:30:03.004Z,25.39
2017-06-30T08:31:03.336Z,25.4
2017-06-30T08:32:03.670Z,25.4
2017-06-30T08:33:03.387Z,25.38
2017-06-30T08:34:03.728Z,25.3
2017-06-30T08:35:03.776Z,25.38
2017-06-30T08:36:03.472Z,25.4
2017-06-30T08:37:03.810Z,25.46
2017-06-30T08:38:03.525Z,25.42
2017-06-30T08:39:03.240Z,25.51
2017-06-30T08:40:03.896Z,25.46
2017-06-30T08:41:03.909Z,25.54
2017-06-30T08:42:03.649Z,25.55
2017-06-30T08:43:03.353Z,25.45
2017-06-30T08:44:03.700Z,25.5
2017-06-30T08:45:04.030Z,25.51
2017-06-30T08:46:04.074Z,25.47
2017-06-30T08:47:03.786Z,25.46
2017-06-30T08:48:04.123Z,25.45
2017-06-30T08:49:04.161Z,25.47
2017-06-30T08:50:04.185Z,25.46
2017-06-30T08:51:04.206Z,25.5
2017-06-30T08:52:03.925Z,25.5
2017-06-30T08:53:03.959Z,25.55
2017-06-30T08:54:03.983Z,25.55
2017-06-30T08:55:04.317Z,25.52
2017-06-30T08:56:04.352Z,25.61
2017-06-30T08:57:04.382Z,25.55
2017-06-30T08:58:04.412Z,25.55
2017-06-30T08:59:04.452Z,25.55
2017-06-30T09:00:04.473Z,25.6
2017-06-30T09:01:04.501Z,25.55
2017-06-30T09:02:04.519Z,25.5
2017-06-30T09:03:04.547Z,25.46
2017-06-30T09:04:04.583Z,25.47
2017-06-30T09:05:04.613Z,25.55
2017-06-30T09:06:04.334Z,25.54
2017-06-30T09:07:04.667Z,25.47
2017-06-30T09:08:04.699Z,25.5
2017-06-30T09:09:04.728Z,25.57
2017-06-30T09:10:04.133Z,25.45
2017-06-30T09:11:04.477Z,25.55
2017-06-30T09:12:04.839Z,25.55
2017-06-30T09:13:04.518Z,25.61
2017-06-30T09:14:04.807Z,25.57
2017-06-30T09:15:04.580Z,25.6
2017-06-30T09:16:04.608Z,25.57
2017-06-30T09:17:04.957Z,25.58
2017-06-30T09:18:04.995Z,25.57
2017-06-30T09:19:05.328Z,25.6
2017-06-30T09:20:05.040Z,25.58
2017-06-30T09:21:05.061Z,25.55
2017-06-30T09:22:05.090Z,25.61
2017-06-30T09:23:05.133Z,25.58
2017-06-30T09:24:05.146Z,25.52
2017-06-30T09:25:04.872Z,25.57
2017-06-30T09:26:04.898Z,25.57
2017-06-30T09:27:04.917Z,25.55
2017-06-30T09:28:04.946Z,25.55
2017-06-30T09:29:05.228Z,25.62
2017-06-30T09:30:05.332Z,25.57
2017-06-30T09:31:05.333Z,25.46
2017-06-30T09:32:05.061Z,25.58
2017-06-30T09:33:05.095Z,25.46
2017-06-30T09:34:05.468Z,25.55
2017-06-30T09:35:05.464Z,25.57
2017-06-30T09:36:05.481Z,25.55
2017-06-30T09:37:05.522Z,25.57
2017-06-30T09:38:05.538Z,25.51
2017-06-30T09:39:05.511Z,25.54
2017-06-30T09:40:05.593Z,25.57
2017-06-30T09:41:05.320Z,25.58
2017-06-30T09:42:05.653Z,25.6
2017-06-30T09:43:05.387Z,25.61
2017-06-30T09:44:05.655Z,25.58
2017-06-30T09:45:05.749Z,25.58
2017-06-30T09:46:05.151Z,25.54
2017-06-30T09:47:05.489Z,25.61
2017-06-30T09:48:05.522Z,25.6
2017-06-30T09:49:06.111Z,25.67
2017-06-30T09:50:05.575Z,25.61
2017-06-30T09:51:05.914Z,25.54
2017-06-30T09:52:05.937Z,25.58
2017-06-30T09:53:05.980Z,25.58
2017-06-30T09:54:05.376Z,25.58
2017-06-30T09:55:06.021Z,25.58
2017-06-30T09:56:06.057Z,25.58
2017-06-30T09:57:06.085Z,25.64
2017-06-30T09:58:06.115Z,25.64
2017-06-30T09:59:05.839Z,25.61
2017-06-30T10:00:06.180Z,25.64
2017-06-30T10:01:06.215Z,25.64
2017-06-30T10:02:06.230Z,25.67
2017-06-30T10:03:06.263Z,25.65
2017-06-30T10:04:05.975Z,25.75
2017-06-30T10:05:06.001Z,25.7
2017-06-30T10:06:06.336Z,25.79
2017-06-30T10:07:06.365Z,25.76
2017-06-30T10:08:06.402Z,25.8
2017-06-30T10:09:06.445Z,25.8
2017-06-30T10:10:06.460Z,25.82
2017-06-30T10:11:06.487Z,25.75
2017-06-30T10:12:06.205Z,25.82
2017-06-30T10:13:06.235Z,25.75
2017-06-30T10:14:06.263Z,25.76
2017-06-30T10:15:06.233Z,25.85
2017-06-30T10:16:06.632Z,25.92
2017-06-30T10:17:06.654Z,25.88
2017-06-30T10:18:06.377Z,25.92
2017-06-30T10:19:06.724Z,25.9
2017-06-30T10:20:06.692Z,25.91
2017-06-30T10:21:06.780Z,25.87
2017-06-30T10:22:06.810Z,25.95
2017-06-30T10:23:06.827Z,25.88
2017-06-30T10:24:06.556Z,25.87
2017-06-30T10:25:07.136Z,25.97
2017-06-30T10:26:06.609Z,25.9
2017-06-30T10:27:06.946Z,25.94
2017-06-30T10:28:06.982Z,25.91
2017-06-30T10:29:07.007Z,25.83
2017-06-30T10:30:06.976Z,25.97
2017-06-30T10:31:06.753Z,25.87
2017-06-30T10:32:07.084Z,25.97
2017-06-30T10:33:06.815Z,25.99
2017-06-30T10:34:06.835Z,26.06
2017-06-30T10:35:07.434Z,26.01
2017-06-30T10:36:07.198Z,26.09
2017-06-30T10:37:06.917Z,25.92
2017-06-30T10:38:06.951Z,25.98
2017-06-30T10:39:06.668Z,25.94
2017-06-30T10:40:07.616Z,25.92
2017-06-30T10:41:07.036Z,25.92
2017-06-30T10:42:07.385Z,25.88
2017-06-30T10:43:07.403Z,25.88
2017-06-30T10:44:07.436Z,25.88
2017-06-30T10:45:07.405Z,25.92
2017-06-30T10:46:07.489Z,25.91
2017-06-30T10:47:07.533Z,25.92
2017-06-30T10:48:07.558Z,25.98
2017-06-30T10:49:07.590Z,25.99
2017-06-30T10:50:07.908Z,25.9
2017-06-30T10:51:07.332Z,25.97
2017-06-30T10:52:07.670Z,26.01
2017-06-30T10:53:07.699Z,25.87
2017-06-30T10:54:07.736Z,25.91
2017-06-30T10:55:07.743Z,25.95
2017-06-30T10:56:07.473Z,25.92
2017-06-30T10:57:07.816Z,25.95
2017-06-30T10:58:07.849Z,25.98
2017-06-30T10:59:07.886Z,25.92
2017-06-30T11:00:08.139Z,26.02
2017-06-30T11:01:07.924Z,26.09
2017-06-30T11:02:07.951Z,26.1
2017-06-30T11:03:07.982Z,26.1
2017-06-30T11:04:07.713Z,26.07
2017-06-30T11:05:08.031Z,26.1
2017-06-30T11:06:07.449Z,26.12
2017-06-30T11:07:08.097Z,26.15
2017-06-30T11:08:08.121Z,26.13
2017-06-30T11:09:08.154Z,26.12
2017-06-30T11:10:08.128Z,26.15
2017-06-30T11:11:08.216Z,26.05
2017-06-30T11:12:08.245Z,26.07
2017-06-30T11:13:08.278Z,26.28
2017-06-30T11:14:08.302Z,26.2
2017-06-30T11:15:08.578Z,26.26
2017-06-30T11:16:07.731Z,26.3
2017-06-30T11:17:08.389Z,26.29
2017-06-30T11:18:08.423Z,26.32
2017-06-30T11:19:08.447Z,26.28
2017-06-30T11:20:08.476Z,26.28
2017-06-30T11:21:08.509Z,26.32
2017-06-30T11:22:08.541Z,26.28
2017-06-30T11:23:08.565Z,26.33
2017-06-30T11:24:08.596Z,26.35
2017-06-30T11:25:08.623Z,26.33
2017-06-30T11:26:08.392Z,26.33
2017-06-30T11:27:08.682Z,26.32
2017-06-30T11:28:08.709Z,26.36
2017-06-30T11:29:08.748Z,26.32
2017-06-30T11:30:08.148Z,26.35
2017-06-30T11:31:08.477Z,26.43
2017-06-30T11:32:08.205Z,26.37
2017-06-30T11:33:08.858Z,26.45
2017-06-30T11:34:08.572Z,26.44
2017-06-30T11:35:08.612Z,26.43
2017-06-30T11:36:08.620Z,26.37
2017-06-30T11:37:08.973Z,26.54
2017-06-30T11:38:09.006Z,26.51
2017-06-30T11:39:08.719Z,26.52
2017-06-30T11:40:08.735Z,26.54
2017-06-30T11:41:09.088Z,26.67
2017-06-30T11:42:08.854Z,26.77
2017-06-30T11:43:08.839Z,26.77
2017-06-30T11:44:09.187Z,26.77
2017-06-30T11:45:08.887Z,26.87
2017-06-30T11:46:08.926Z,27
2017-06-30T11:47:09.261Z,27.09
2017-06-30T11:48:09.293Z,27.13
2017-06-30T11:49:09.019Z,27.17
2017-06-30T11:50:09.043Z,27.28
2017-06-30T11:51:09.381Z,27.28
2017-06-30T11:52:09.413Z,27.24
2017-06-30T11:53:09.454Z,27.37
2017-06-30T11:54:09.478Z,27.36
2017-06-30T11:55:09.191Z,27.34
2017-06-30T11:56:09.229Z,27.32
2017-06-30T11:57:09.258Z,27.34
2017-06-30T11:58:09.603Z,27.34
2017-06-30T11:59:09.636Z,27.32
2017-06-30T12:00:09.664Z,27.39
2017-06-30T12:01:09.685Z,27.4
2017-06-30T12:02:09.401Z,27.41
2017-06-30T12:03:09.439Z,27.32
2017-06-30T12:04:09.465Z,27.36
2017-06-30T12:05:09.813Z,27.39
2017-06-30T12:06:09.534Z,27.31
2017-06-30T12:07:09.860Z,27.28
2017-06-30T12:08:09.585Z,27.24
2017-06-30T12:09:09.628Z,27.32
2017-06-30T12:10:09.659Z,27.25
2017-06-30T12:11:09.992Z,27.22
2017-06-30T12:12:10.025Z,27.24
2017-06-30T12:13:10.054Z,27.12
2017-06-30T12:14:10.083Z,27.09
2017-06-30T12:15:09.797Z,27.06
2017-06-30T12:16:09.830Z,27.12
2017-06-30T12:17:09.855Z,27
2017-06-30T12:18:09.882Z,27.03
2017-06-30T12:19:09.915Z,27
2017-06-30T12:20:10.255Z,26.97
2017-06-30T12:21:10.293Z,26.97
2017-06-30T12:22:10.004Z,26.91
2017-06-30T12:23:10.043Z,26.95
2017-06-30T12:24:10.363Z,26.94
2017-06-30T12:25:10.091Z,26.99
2017-06-30T12:26:10.116Z,26.89
2017-06-30T12:27:10.463Z,26.89
2017-06-30T12:28:10.174Z,26.87
2017-06-30T12:29:10.510Z,26.81
2017-06-30T12:30:10.241Z,26.82
2017-06-30T12:31:10.269Z,26.84
2017-06-30T12:32:10.320Z,26.81
2017-06-30T12:33:10.635Z,26.8
2017-06-30T12:34:10.356Z,26.84
2017-06-30T12:35:10.691Z,26.92
2017-06-30T12:36:10.417Z,26.95
2017-06-30T12:37:10.763Z,27.1
2017-06-30T12:38:10.790Z,27.17
2017-06-30T12:39:10.507Z,27.24
2017-06-30T12:40:10.851Z,27.41
2017-06-30T12:41:10.576Z,27.62
2017-06-30T12:42:10.912Z,27.81
2017-06-30T12:43:10.623Z,28.03
2017-06-30T12:44:10.656Z,28.19
2017-06-30T12:45:11.000Z,28.33
2017-06-30T12:46:11.027Z,28.51
2017-06-30T12:47:11.053Z,28.68
2017-06-30T12:48:11.086Z,28.8
2017-06-30T12:49:10.803Z,28.86
2017-06-30T12:50:11.152Z,28.95
2017-06-30T12:51:11.179Z,29
2017-06-30T12:52:10.586Z,29
2017-06-30T12:53:10.938Z,28.86
2017-06-30T12:54:10.970Z,28.86
2017-06-30T12:55:10.691Z,28.81
2017-06-30T12:56:11.343Z,28.76
2017-06-30T12:57:10.745Z,28.88